Time;durP1;ratioP1;P1;durP2;ratioP2;P2;SDS_P1;SDS_P2;PMS_P1;PMS_P2;Temp;Humidity;BMP_temperature;BMP_pressure;BME280_temperature;BME280_humidity;BME280_pressure;Samples;Min_cycle;Max_cycle;Signal;HPM_P1;HPM_P2
2021/12/20 00:01:01;;;;;;;1.63;1.57;;;6.00;99.90;;;;;;5031189;28;20295;-72
2021/12/20 00:03:26;;;;;;;0.40;0.40;;;6.10;99.90;;;;;;5031236;28;20196;-72
2021/12/20 00:05:52;;;;;;;0.50;0.37;;;6.10;99.90;;;;;;5030904;28;20638;-71
2021/12/20 00:08:17;;;;;;;0.83;0.73;;;6.00;99.90;;;;;;5013308;28;20665;-72
2021/12/20 00:10:43;;;;;;;1.23;1.23;;;6.00;99.90;;;;;;5030339;28;20205;-72
2021/12/20 00:13:09;;;;;;;2.23;2.13;;;6.00;99.90;;;;;;5039784;28;20216;-72
2021/12/20 00:15:35;;;;;;;0.40;0.40;;;6.00;99.90;;;;;;5031047;28;20645;-72
2021/12/20 00:18:00;;;;;;;2.83;2.57;;;6.00;99.90;;;;;;5030999;28;20190;-72
2021/12/20 00:20:26;;;;;;;4.87;3.53;;;6.00;99.90;;;;;;5030906;28;20707;-72
2021/12/20 00:22:51;;;;;;;4.83;2.77;;;6.00;99.90;;;;;;5031118;28;20289;-72
2021/12/20 00:25:17;;;;;;;3.13;2.93;;;6.00;99.90;;;;;;5031099;28;20200;-71
2021/12/20 00:27:42;;;;;;;5.73;1.47;;;6.00;99.90;;;;;;5030899;28;20212;-72
2021/12/20 00:30:10;;;;;;;0.10;0.10;;;6.10;99.90;;;;;;5030875;28;20205;-72
2021/12/20 00:32:35;;;;;;;0.53;0.53;;;6.00;99.90;;;;;;5030977;28;20198;-72
2021/12/20 00:35:01;;;;;;;1.03;1.03;;;6.00;99.90;;;;;;5013057;28;20212;-72
2021/12/20 00:40:23;;;;;;;4.60;2.53;;;6.10;99.90;;;;;;5030848;28;20220;-72
2021/12/20 00:42:51;;;;;;;1.17;1.17;;;6.10;99.90;;;;;;5030786;28;20224;-71
2021/12/20 00:45:18;;;;;;;0.60;0.60;;;6.10;99.90;;;;;;5030924;28;20227;-71
2021/12/20 00:47:44;;;;;;;0.50;0.50;;;6.10;99.90;;;;;;5043373;28;20182;-71
2021/12/20 00:50:12;;;;;;;0.10;0.10;;;6.10;99.90;;;;;;5030703;28;20308;-72
2021/12/20 00:52:38;;;;;;;0.23;0.23;;;6.10;99.90;;;;;;5030681;28;20718;-72
2021/12/20 00:55:04;;;;;;;0.10;0.10;;;6.10;99.90;;;;;;5030758;28;20201;-71
2021/12/20 00:57:30;;;;;;;0.00;0.00;;;6.10;99.90;;;;;;5030533;28;20194;-71
2021/12/20 00:59:56;;;;;;;0.20;0.20;;;6.10;99.90;;;;;;5030646;28;20228;-71
2021/12/20 01:02:21;;;;;;;12.77;1.93;;;6.10;99.90;;;;;;5030713;28;20181;-72
2021/12/20 01:04:47;;;;;;;0.57;0.57;;;6.10;99.90;;;;;;5030848;28;20186;-72
2021/12/20 01:07:12;;;;;;;2.23;1.20;;;6.10;99.90;;;;;;5030406;28;20240;-72
2021/12/20 01:09:39;;;;;;;0.73;0.67;;;6.10;99.90;;;;;;5012152;28;20192;-72
2021/12/20 01:12:07;;;;;;;0.10;0.10;;;6.10;99.90;;;;;;5030366;28;20768;-72
2021/12/20 01:14:36;;;;;;;2.57;2.30;;;6.10;99.90;;;;;;5011020;28;20265;-72
2021/12/20 01:17:05;;;;;;;0.27;0.27;;;6.10;99.90;;;;;;5010550;28;20576;-72
2021/12/20 01:19:34;;;;;;;1.07;1.07;;;6.10;99.90;;;;;;5011796;28;20547;-72
2021/12/20 01:22:01;;;;;;;2.30;2.20;;;6.10;99.90;;;;;;5003345;28;20641;-72
2021/12/20 01:24:27;;;;;;;0.40;0.40;;;6.10;99.90;;;;;;5034279;28;20174;-72
2021/12/20 01:26:52;;;;;;;0.97;0.97;;;6.10;99.90;;;;;;5033794;28;20188;-72
2021/12/20 01:29:18;;;;;;;4.47;3.20;;;6.10;99.90;;;;;;5034004;28;20191;-73
2021/12/20 01:31:44;;;;;;;12.63;2.83;;;6.00;99.90;;;;;;5016488;28;20215;-73
2021/12/20 01:34:09;;;;;;;0.97;0.97;;;6.00;99.90;;;;;;5034129;28;20661;-73
2021/12/20 01:36:35;;;;;;;0.40;0.40;;;6.00;99.90;;;;;;5033146;28;20188;-73
2021/12/20 01:39:00;;;;;;;1.03;1.03;;;6.00;99.90;;;;;;5016012;28;20185;-74
2021/12/20 01:41:26;;;;;;;0.30;0.30;;;6.00;99.90;;;;;;5033881;28;20209;-72
2021/12/20 01:43:53;;;;;;;2.07;1.67;;;6.00;99.90;;;;;;5033710;28;20681;-72
2021/12/20 01:46:19;;;;;;;0.37;0.37;;;6.00;99.90;;;;;;5039489;28;20256;-72
2021/12/20 01:48:46;;;;;;;1.03;1.03;;;6.00;99.90;;;;;;5017211;28;20189;-72
2021/12/20 01:51:46;;;;;;;0.40;0.40;;;6.00;99.90;;;;;;5033360;28;20252;-73
2021/12/20 01:53:58;;;;;;;2.30;2.13;;;6.00;99.90;;;;;;5033005;28;20200;-72
2021/12/20 01:56:24;;;;;;;2.03;0.57;;;6.00;99.90;;;;;;5033363;28;20251;-72
2021/12/20 01:58:50;;;;;;;1.10;1.10;;;6.00;99.90;;;;;;5033359;28;20189;-72
2021/12/20 02:03:45;;;;;;;0.10;0.10;;;5.90;99.90;;;;;;5033249;28;20235;-72
2021/12/20 02:06:26;;;;;;;0.17;0.17;;;5.90;99.90;;;;;;5015277;28;20181;-72
2021/12/20 02:08:54;;;;;;;3.30;1.67;;;5.90;99.90;;;;;;5015445;28;20185;-71
2021/12/20 02:11:21;;;;;;;0.40;0.40;;;5.90;99.90;;;;;;5032834;28;20232;-72
2021/12/20 02:13:47;;;;;;;0.93;0.93;;;6.00;99.90;;;;;;5032899;28;20184;-72
2021/12/20 02:16:12;;;;;;;1.30;0.50;;;6.10;99.90;;;;;;5032864;28;20177;-71
2021/12/20 02:18:38;;;;;;;0.40;0.40;;;6.00;99.90;;;;;;5015336;28;20243;-71
2021/12/20 02:21:04;;;;;;;1.03;1.03;;;6.00;99.90;;;;;;5032753;28;20214;-71
2021/12/20 02:23:30;;;;;;;0.10;0.10;;;5.90;99.90;;;;;;5033026;28;20288;-71
2021/12/20 02:25:56;;;;;;;1.53;1.43;;;5.90;99.90;;;;;;5032672;28;20305;-71
2021/12/20 02:28:22;;;;;;;0.73;0.73;;;5.90;99.90;;;;;;5032601;28;20220;-72
2021/12/20 02:36:54;;;;;;;2.00;1.90;;;5.90;99.90;;;;;;5032720;28;20580;-72
2021/12/20 02:38:47;;;;;;;2.23;1.60;;;5.90;99.90;;;;;;5032258;28;20720;-69
2021/12/20 02:41:14;;;;;;;0.10;0.10;;;5.90;99.90;;;;;;5032590;28;20720;-71
2021/12/20 02:43:53;;;;;;;1.07;1.07;;;5.90;99.90;;;;;;5032590;28;20180;-70
2021/12/20 02:48:51;;;;;;;0.50;0.50;;;5.90;99.90;;;;;;5032898;28;20174;-70
2021/12/20 02:51:17;;;;;;;0.47;0.47;;;5.80;99.90;;;;;;5032236;28;20241;-71
2021/12/20 02:53:42;;;;;;;0.50;0.37;;;5.90;99.90;;;;;;5032303;28;20174;-70
2021/12/20 02:56:08;;;;;;;5.00;1.30;;;5.80;99.90;;;;;;5032232;28;20184;-70
2021/12/20 02:58:33;;;;;;;0.53;0.53;;;5.90;99.90;;;;;;5032432;28;20185;-71
2021/12/20 03:00:59;;;;;;;0.60;0.60;;;5.90;99.90;;;;;;5032192;28;20208;-71
2021/12/20 03:03:25;;;;;;;0.10;0.10;;;5.90;99.90;;;;;;5032036;28;20178;-70
2021/12/20 03:05:51;;;;;;;1.47;1.37;;;5.90;99.90;;;;;;5031795;28;20181;-70
2021/12/20 03:08:21;;;;;;;0.47;0.30;;;5.90;99.90;;;;;;5032093;28;20744;-71
2021/12/20 03:10:47;;;;;;;25.60;0.87;;;5.90;99.90;;;;;;5013638;28;20202;-71
2021/12/20 03:13:13;;;;;;;0.10;0.10;;;5.90;99.90;;;;;;5032093;28;20789;-71
2021/12/20 03:15:39;;;;;;;0.30;0.30;;;5.80;99.90;;;;;;5031752;28;20213;-69
2021/12/20 03:18:05;;;;;;;0.83;0.83;;;5.80;99.90;;;;;;5031626;28;20202;-69
2021/12/20 03:20:30;;;;;;;1.03;1.03;;;5.90;99.90;;;;;;5031699;28;20225;-71
2021/12/20 03:22:56;;;;;;;1.07;1.00;;;5.80;99.90;;;;;;5032070;28;20675;-71
2021/12/20 03:25:22;;;;;;;1.83;1.23;;;5.80;99.90;;;;;;5031649;28;20173;-70
2021/12/20 03:27:47;;;;;;;0.10;0.10;;;5.80;99.90;;;;;;5031618;28;20169;-71
2021/12/20 03:30:14;;;;;;;1.67;1.10;;;5.80;99.90;;;;;;5031578;28;20198;-70
2021/12/20 03:32:41;;;;;;;1.40;1.40;;;5.90;99.90;;;;;;5031646;28;20189;-70
2021/12/20 03:35:07;;;;;;;0.10;0.10;;;5.80;99.90;;;;;;5031470;28;20174;-70
2021/12/20 03:37:33;;;;;;;0.43;0.43;;;5.80;99.90;;;;;;5013426;28;20205;-72
2021/12/20 03:39:59;;;;;;;0.50;0.50;;;5.80;99.90;;;;;;5031472;28;20241;-70
2021/12/20 03:42:27;;;;;;;0.10;0.10;;;5.80;99.90;;;;;;5013395;28;20651;-70
2021/12/20 03:44:53;;;;;;;1.43;1.33;;;5.80;99.90;;;;;;5031295;28;20189;-70
2021/12/20 03:47:18;;;;;;;1.20;1.10;;;5.80;99.90;;;;;;5038381;28;20178;-70
2021/12/20 03:49:44;;;;;;;0.30;0.30;;;5.80;99.90;;;;;;5013489;28;20213;-69
2021/12/20 03:52:11;;;;;;;0.70;0.70;;;5.80;99.90;;;;;;5095752;22;20594;-73
2021/12/20 03:54:37;;;;;;;0.20;0.20;;;5.80;99.90;;;;;;5096028;28;20195;-72
2021/12/20 03:57:04;;;;;;;0.60;0.60;;;5.80;99.90;;;;;;5095833;28;20176;-72
2021/12/20 03:59:29;;;;;;;1.17;0.93;;;5.70;99.90;;;;;;5094110;28;20209;-71
2021/12/20 04:01:56;;;;;;;0.83;0.83;;;5.70;99.90;;;;;;5092752;28;20192;-72
2021/12/20 04:04:22;;;;;;;2.00;1.40;;;5.80;99.90;;;;;;5092173;28;20175;-72
2021/12/20 04:06:48;;;;;;;1.80;0.53;;;5.70;99.90;;;;;;5091334;28;20527;-72
2021/12/20 04:09:13;;;;;;;1.13;1.13;;;5.80;99.90;;;;;;5092475;28;20187;-72
2021/12/20 04:11:39;;;;;;;0.63;0.63;;;5.70;99.90;;;;;;5092960;28;20211;-72
2021/12/20 04:14:06;;;;;;;7.33;2.10;;;5.70;99.90;;;;;;5092445;28;20262;-73
2021/12/20 04:16:32;;;;;;;0.20;0.20;;;5.70;99.90;;;;;;5074393;28;20270;-72
2021/12/20 04:18:58;;;;;;;2.53;0.87;;;5.70;99.90;;;;;;5093295;28;20232;-73
2021/12/20 04:21:23;;;;;;;1.43;0.67;;;5.70;99.90;;;;;;5092471;28;20278;-73
2021/12/20 04:23:49;;;;;;;26.30;2.30;;;5.70;99.90;;;;;;5092393;28;20631;-72
2021/12/20 04:26:14;;;;;;;2.17;2.07;;;5.70;99.90;;;;;;5092776;28;20179;-72
2021/12/20 04:28:41;;;;;;;0.47;0.47;;;5.70;99.90;;;;;;5093591;28;20651;-74
2021/12/20 04:31:07;;;;;;;0.00;0.00;;;5.70;99.90;;;;;;5098124;28;20223;-73
2021/12/20 04:33:33;;;;;;;0.20;0.20;;;5.70;99.90;;;;;;5101643;28;20205;-73
2021/12/20 04:35:58;;;;;;;0.93;0.93;;;5.60;99.90;;;;;;5093793;28;20180;-73
2021/12/20 04:38:26;;;;;;;6.80;0.97;;;5.70;99.90;;;;;;5092318;28;20205;-72
2021/12/20 04:40:52;;;;;;;0.43;0.43;;;5.70;99.90;;;;;;5079759;28;20199;-72
2021/12/20 04:43:18;;;;;;;1.07;1.07;;;5.70;99.90;;;;;;5074447;28;20275;-72
2021/12/20 04:45:43;;;;;;;0.10;0.10;;;5.70;99.90;;;;;;5091133;28;20179;-74
2021/12/20 04:48:09;;;;;;;0.37;0.37;;;5.70;99.90;;;;;;5085693;28;20176;-73
2021/12/20 04:50:35;;;;;;;0.47;0.47;;;5.70;99.90;;;;;;5091822;28;20212;-72
2021/12/20 04:53:01;;;;;;;3.23;2.87;;;5.70;99.90;;;;;;5092220;28;20592;-72
2021/12/20 04:55:27;;;;;;;4.97;2.53;;;5.70;99.90;;;;;;5094939;28;20196;-72
2021/12/20 04:57:54;;;;;;;0.37;0.37;;;5.70;99.90;;;;;;5095838;28;20180;-72
2021/12/20 05:00:30;;;;;;;0.10;0.10;;;5.70;99.90;;;;;;5095829;28;20662;-72
2021/12/20 05:02:56;;;;;;;0.60;0.37;;;5.70;99.90;;;;;;5077838;28;20228;-72
2021/12/20 05:05:22;;;;;;;0.27;0.27;;;5.70;99.90;;;;;;5077676;28;20180;-72
2021/12/20 05:07:49;;;;;;;0.13;0.13;;;5.70;99.90;;;;;;5077019;28;20180;-72
2021/12/20 05:10:26;;;;;;;0.20;0.20;;;5.80;99.90;;;;;;5095843;28;20550;-72
2021/12/20 05:12:59;;;;;;;7.10;3.77;;;5.70;99.90;;;;;;5101759;28;20592;-73
2021/12/20 05:15:26;;;;;;;1.03;0.93;;;5.70;99.90;;;;;;5097327;28;20190;-71
2021/12/20 05:17:51;;;;;;;0.10;0.10;;;5.70;99.90;;;;;;5096968;28;20187;-71
2021/12/20 05:20:17;;;;;;;0.00;0.00;;;5.60;99.90;;;;;;5096918;28;20714;-70
2021/12/20 05:22:43;;;;;;;4.10;0.67;;;5.60;99.90;;;;;;5096614;28;20203;-71
2021/12/20 05:25:10;;;;;;;9.53;1.37;;;5.70;99.90;;;;;;5097285;28;20176;-71
2021/12/20 05:27:37;;;;;;;2.10;2.00;;;5.70;99.90;;;;;;5097182;28;20966;-72
2021/12/20 05:30:07;;;;;;;0.73;0.73;;;5.60;99.90;;;;;;5079708;28;20248;-71
2021/12/20 05:32:33;;;;;;;0.97;0.97;;;5.60;99.90;;;;;;5079050;28;20202;-72
2021/12/20 05:34:58;;;;;;;5.10;2.10;;;5.60;99.90;;;;;;5097106;28;20212;-71
2021/12/20 05:37:24;;;;;;;0.10;0.10;;;5.60;99.90;;;;;;5096724;28;20175;-71
2021/12/20 05:39:50;;;;;;;0.60;0.60;;;5.60;99.90;;;;;;5084576;28;20232;-72
2021/12/20 05:42:15;;;;;;;1.50;0.53;;;5.60;99.90;;;;;;5076841;28;20211;-71
2021/12/20 05:44:41;;;;;;;2.23;2.13;;;5.50;99.90;;;;;;5096227;28;20178;-71
2021/12/20 05:47:07;;;;;;;0.70;0.70;;;5.50;99.90;;;;;;5088983;28;20631;-72
2021/12/20 05:49:33;;;;;;;2.70;1.87;;;5.50;99.90;;;;;;5095909;28;20183;-71
2021/12/20 05:52:00;;;;;;;0.83;0.83;;;5.50;99.90;;;;;;5095077;28;20216;-71
2021/12/20 05:54:25;;;;;;;0.90;0.90;;;5.50;99.90;;;;;;5094703;28;20651;-72
2021/12/20 05:56:51;;;;;;;0.27;0.20;;;5.50;99.90;;;;;;5094720;28;20183;-71
2021/12/20 05:59:17;;;;;;;0.97;0.93;;;5.50;99.90;;;;;;5076953;28;20183;-73
2021/12/20 06:01:42;;;;;;;1.50;1.40;;;5.60;99.90;;;;;;5078234;28;20575;-72
2021/12/20 06:04:08;;;;;;;1.13;1.13;;;5.50;99.90;;;;;;5096021;28;20210;-73
2021/12/20 06:06:33;;;;;;;0.20;0.20;;;5.50;99.90;;;;;;5094536;28;20172;-71
2021/12/20 06:08:59;;;;;;;12.50;2.30;;;5.50;99.90;;;;;;5079753;28;20704;-71
2021/12/20 06:11:25;;;;;;;2.37;1.80;;;5.50;99.90;;;;;;5071494;28;20765;-71
2021/12/20 06:13:52;;;;;;;0.30;0.30;;;5.50;99.90;;;;;;5094277;28;20179;-73
2021/12/20 06:16:17;;;;;;;0.10;0.10;;;5.40;99.90;;;;;;5094520;28;20760;-72
2021/12/20 06:18:43;;;;;;;0.20;0.20;;;5.40;99.90;;;;;;5096513;28;20183;-71
2021/12/20 06:21:09;;;;;;;0.10;0.10;;;5.40;99.90;;;;;;5095562;28;20208;-72
2021/12/20 06:23:35;;;;;;;2.17;2.03;;;5.40;99.90;;;;;;5095570;28;20681;-72
2021/12/20 06:26:01;;;;;;;0.40;0.33;;;5.40;99.90;;;;;;5095027;28;20179;-71
2021/12/20 06:28:26;;;;;;;0.83;0.30;;;5.40;99.90;;;;;;5095646;28;20221;-72
2021/12/20 06:30:52;;;;;;;16.73;1.73;;;5.40;99.90;;;;;;5077224;28;20195;-72
2021/12/20 06:33:18;;;;;;;3.03;2.30;;;5.40;99.90;;;;;;5096120;28;20184;-72
2021/12/20 06:35:45;;;;;;;1.03;1.03;;;5.30;99.90;;;;;;5095338;28;20179;-72
2021/12/20 06:38:18;;;;;;;0.10;0.10;;;5.30;99.90;;;;;;5095868;28;20553;-71
2021/12/20 06:40:43;;;;;;;0.10;0.10;;;5.30;99.90;;;;;;5064040;28;20208;-72
2021/12/20 06:43:09;;;;;;;0.67;0.67;;;5.30;99.90;;;;;;5096971;28;20213;-72
2021/12/20 06:45:35;;;;;;;0.10;0.10;;;5.30;99.90;;;;;;5097420;28;20208;-71
2021/12/20 06:48:00;;;;;;;3.07;2.73;;;5.30;99.90;;;;;;5083638;28;20300;-72
2021/12/20 06:50:26;;;;;;;0.20;0.20;;;5.30;99.90;;;;;;5080635;28;20221;-73
2021/12/20 06:52:52;;;;;;;0.97;0.97;;;5.30;99.90;;;;;;5098195;28;20195;-72
2021/12/20 06:55:17;;;;;;;0.10;0.10;;;5.40;99.90;;;;;;5076384;28;20270;-71
2021/12/20 06:57:43;;;;;;;2.30;1.13;;;5.30;99.90;;;;;;5093499;28;20224;-71
2021/12/20 07:00:09;;;;;;;0.77;0.77;;;5.30;99.90;;;;;;5092754;28;20752;-72
2021/12/20 07:02:34;;;;;;;0.53;0.53;;;5.40;99.90;;;;;;5074532;28;20863;-72
2021/12/20 07:05:00;;;;;;;0.67;0.67;;;5.40;99.90;;;;;;5092197;28;20168;-72
2021/12/20 07:07:25;;;;;;;0.67;0.63;;;5.30;99.90;;;;;;5092912;28;20264;-71
2021/12/20 07:09:51;;;;;;;0.20;0.20;;;5.30;99.90;;;;;;5093971;28;20206;-73
2021/12/20 07:12:17;;;;;;;0.10;0.10;;;5.30;99.90;;;;;;5095252;28;20233;-74
2021/12/20 07:14:42;;;;;;;0.00;0.00;;;5.30;99.90;;;;;;5077257;28;20184;-74
2021/12/20 07:17:08;;;;;;;0.87;0.87;;;5.30;99.90;;;;;;5092393;28;20180;-73
2021/12/20 07:19:34;;;;;;;1.03;1.03;;;5.30;99.90;;;;;;5094011;28;20287;-72
2021/12/20 07:21:59;;;;;;;0.97;0.93;;;5.30;99.90;;;;;;5093989;28;20219;-73
2021/12/20 07:24:25;;;;;;;0.50;0.50;;;5.30;99.90;;;;;;5095083;28;20191;-73
2021/12/20 07:26:50;;;;;;;0.83;0.83;;;5.30;99.90;;;;;;5094928;28;20634;-72
2021/12/20 07:29:19;;;;;;;0.40;0.40;;;5.30;99.90;;;;;;5093061;28;20685;-70
2021/12/20 07:31:45;;;;;;;1.13;1.03;;;5.30;99.90;;;;;;5093081;28;20903;-69
2021/12/20 07:34:11;;;;;;;0.40;0.40;;;5.30;99.90;;;;;;5092727;28;20172;-71
2021/12/20 07:36:37;;;;;;;3.60;1.27;;;5.40;99.90;;;;;;5092513;28;20194;-72
2021/12/20 07:39:04;;;;;;;13.20;5.33;;;5.40;99.90;;;;;;5089547;28;20164;-70
2021/12/20 07:41:30;;;;;;;0.60;0.60;;;5.40;99.90;;;;;;5060359;28;20597;-70
2021/12/20 07:43:55;;;;;;;0.10;0.10;;;5.30;99.90;;;;;;5093444;28;20175;-71
2021/12/20 07:46:21;;;;;;;4.50;2.00;;;5.30;99.90;;;;;;5086436;28;20183;-71
2021/12/20 07:48:49;;;;;;;0.60;0.60;;;5.30;99.90;;;;;;5092678;28;20180;-71
2021/12/20 07:51:14;;;;;;;2.13;1.17;;;5.30;99.90;;;;;;5075498;28;20642;-71
2021/12/20 07:53:41;;;;;;;3.80;0.73;;;5.30;99.90;;;;;;5094366;28;20219;-72
2021/12/20 07:56:07;;;;;;;3.00;2.60;;;5.30;99.90;;;;;;5093864;28;20225;-71
2021/12/20 07:58:33;;;;;;;1.13;1.00;;;5.40;99.90;;;;;;5093904;28;20233;-69
2021/12/20 08:01:01;;;;;;;0.77;0.77;;;5.40;99.90;;;;;;5075427;28;20211;-72
2021/12/20 08:03:27;;;;;;;0.10;0.10;;;5.40;99.90;;;;;;5094470;28;20176;-71
2021/12/20 08:05:53;;;;;;;0.83;0.83;;;5.40;99.90;;;;;;5094100;28;20172;-72
2021/12/20 08:08:19;;;;;;;0.30;0.30;;;5.40;99.90;;;;;;5075363;28;20333;-71
2021/12/20 08:10:45;;;;;;;2.20;2.00;;;5.40;99.90;;;;;;5093703;28;20200;-71
2021/12/20 08:13:12;;;;;;;21.13;2.93;;;5.40;99.90;;;;;;5062407;28;20184;-72
2021/12/20 08:15:38;;;;;;;0.40;0.40;;;5.40;99.90;;;;;;5080091;28;20627;-72
2021/12/20 08:18:05;;;;;;;0.20;0.20;;;5.40;99.90;;;;;;5093601;28;20229;-71
2021/12/20 08:20:31;;;;;;;3.03;1.80;;;5.40;99.90;;;;;;5074641;28;20207;-70
2021/12/20 08:22:57;;;;;;;0.20;0.20;;;5.40;99.90;;;;;;5094323;28;20172;-72
2021/12/20 08:25:23;;;;;;;1.10;1.10;;;5.40;99.90;;;;;;5095755;28;20221;-72
2021/12/20 08:27:49;;;;;;;0.27;0.27;;;5.40;99.90;;;;;;5096533;28;20206;-72
2021/12/20 08:30:17;;;;;;;2.30;2.10;;;5.40;99.90;;;;;;5098511;28;20171;-68
2021/12/20 08:32:42;;;;;;;0.80;0.67;;;5.40;99.90;;;;;;5079572;28;20187;-70
2021/12/20 08:35:10;;;;;;;29.30;3.30;;;5.50;99.90;;;;;;5096931;28;20179;-71
2021/12/20 08:37:36;;;;;;;0.10;0.10;;;5.50;99.90;;;;;;5077938;28;20190;-70
2021/12/20 08:40:04;;;;;;;1.03;0.93;;;5.50;99.90;;;;;;5082720;28;20227;-71
2021/12/20 08:42:29;;;;;;;0.20;0.20;;;5.50;99.90;;;;;;5096790;28;20233;-71
2021/12/20 08:44:55;;;;;;;0.20;0.20;;;5.50;99.90;;;;;;5096909;28;20593;-71
2021/12/20 08:47:21;;;;;;;0.50;0.50;;;5.40;99.90;;;;;;5088368;28;20569;-71
2021/12/20 08:49:47;;;;;;;0.97;0.97;;;5.30;99.90;;;;;;5097159;28;20182;-70
2021/12/20 08:52:13;;;;;;;2.47;0.70;;;5.20;99.90;;;;;;5078973;28;20666;-71
2021/12/20 08:54:39;;;;;;;5.00;1.97;;;5.20;99.90;;;;;;5096468;28;20184;-71
2021/12/20 08:57:07;;;;;;;0.47;0.47;;;5.20;99.90;;;;;;5096159;28;20180;-71
2021/12/20 08:59:33;;;;;;;9.43;2.00;;;5.10;99.90;;;;;;5078564;28;20227;-71
2021/12/20 09:02:00;;;;;;;4.67;0.77;;;5.10;99.90;;;;;;5096725;28;20226;-72
2021/12/20 09:04:26;;;;;;;1.20;1.20;;;5.00;99.90;;;;;;5082629;28;20641;-71
2021/12/20 09:06:52;;;;;;;0.37;0.37;;;5.00;99.90;;;;;;5085792;28;20313;-71
2021/12/20 09:09:18;;;;;;;1.13;1.07;;;4.90;99.90;;;;;;5103047;28;20659;-71
2021/12/20 09:11:45;;;;;;;1.83;1.73;;;4.90;99.90;;;;;;5083350;28;20199;-70
2021/12/20 09:14:12;;;;;;;0.10;0.10;;;4.80;99.90;;;;;;5100092;28;20172;-72
2021/12/20 09:16:37;;;;;;;17.40;1.05;;;4.70;99.90;;;;;;5098926;28;20394;-72
2021/12/20 09:19:03;;;;;;;3.53;2.07;;;4.70;99.90;;;;;;5099407;28;20458;-72
2021/12/20 09:21:29;;;;;;;0.40;0.40;;;4.60;99.90;;;;;;5099055;28;20204;-69
2021/12/20 09:23:56;;;;;;;0.97;0.97;;;4.60;99.90;;;;;;5099164;28;20186;-71
2021/12/20 09:26:21;;;;;;;2.70;2.00;;;4.60;99.90;;;;;;5087340;28;20183;-69
2021/12/20 09:28:47;;;;;;;2.77;0.67;;;4.70;99.90;;;;;;5086134;28;20176;-69
2021/12/20 09:31:13;;;;;;;2.47;1.50;;;4.80;99.90;;;;;;5095452;28;20196;-70
2021/12/20 09:33:39;;;;;;;0.40;0.40;;;5.00;99.90;;;;;;5096689;28;20180;-69
2021/12/20 09:36:05;;;;;;;11.60;1.80;;;5.10;99.90;;;;;;5096500;28;20665;-71
2021/12/20 09:38:31;;;;;;;3.83;2.03;;;5.20;99.90;;;;;;5094711;28;20179;-70
2021/12/20 09:43:45;;;;;;;0.40;0.40;;;5.50;99.90;;;;;;5096310;28;20638;-71
2021/12/20 09:46:10;;;;;;;0.10;0.10;;;5.50;99.90;;;;;;5091150;28;20184;-70
2021/12/20 09:48:36;;;;;;;1.03;0.63;;;5.50;99.90;;;;;;5094209;28;20188;-71
2021/12/20 09:53:33;;;;;;;2.83;1.50;;;5.60;99.90;;;;;;5071488;28;20200;-72
2021/12/20 09:56:00;;;;;;;0.47;0.43;;;5.70;99.90;;;;;;5072947;28;20176;-69
2021/12/20 09:58:26;;;;;;;0.53;0.53;;;5.80;99.90;;;;;;5072807;28;20168;-69
2021/12/20 10:00:53;;;;;;;0.10;0.10;;;5.80;99.90;;;;;;5055259;28;20281;-69
2021/12/20 10:03:20;;;;;;;1.23;1.13;;;5.80;99.90;;;;;;5072755;28;20199;-69
2021/12/20 10:05:46;;;;;;;0.67;0.63;;;5.80;99.90;;;;;;5072863;28;20173;-67
2021/12/20 10:08:15;;;;;;;1.33;1.33;;;5.90;99.90;;;;;;5072614;28;20187;-68
2021/12/20 10:10:49;;;;;;;0.20;0.20;;;5.90;99.90;;;;;;5075307;28;20264;-72
2021/12/20 10:13:34;;;;;;;1.13;1.13;;;6.10;99.90;;;;;;5074030;28;20207;-71
2021/12/20 10:16:02;;;;;;;0.40;0.40;;;6.20;99.90;;;;;;5060101;28;20264;-72
2021/12/20 10:18:31;;;;;;;0.30;0.30;;;6.40;99.90;;;;;;5072643;28;20656;-72
2021/12/20 10:20:58;;;;;;;2.23;2.13;;;6.50;99.90;;;;;;5072846;28;20258;-71
2021/12/20 10:23:48;;;;;;;0.60;0.60;;;6.60;99.90;;;;;;5072628;28;20655;-72
2021/12/20 10:26:14;;;;;;;0.73;0.73;;;6.80;99.90;;;;;;5072486;28;20176;-72
2021/12/20 10:28:41;;;;;;;0.63;0.63;;;6.80;99.90;;;;;;5072413;28;20671;-72
2021/12/20 10:31:13;;;;;;;2.30;1.10;;;6.70;99.90;;;;;;5072591;28;20263;-72
2021/12/20 10:33:39;;;;;;;8.37;2.10;;;6.80;99.90;;;;;;5072463;28;20180;-72
2021/12/20 10:36:10;;;;;;;0.57;0.57;;;6.80;99.90;;;;;;5072456;28;20172;-72
2021/12/20 10:38:44;;;;;;;0.97;0.97;;;6.90;99.90;;;;;;5072613;28;20260;-72
2021/12/20 10:41:15;;;;;;;1.67;0.63;;;7.00;99.90;;;;;;5072106;28;20287;-72
2021/12/20 10:43:52;;;;;;;3.23;1.33;;;7.10;99.90;;;;;;5072389;28;20176;-71
2021/12/20 10:46:19;;;;;;;0.10;0.10;;;7.30;99.90;;;;;;5071878;28;20242;-72
2021/12/20 10:48:48;;;;;;;0.50;0.50;;;7.40;99.90;;;;;;5072939;28;20168;-72
2021/12/20 10:51:25;;;;;;;1.80;1.50;;;7.40;99.90;;;;;;5072069;28;20607;-71
2021/12/20 10:53:59;;;;;;;3.00;0.47;;;7.40;99.90;;;;;;5071816;28;20187;-72
2021/12/20 10:56:26;;;;;;;17.93;4.70;;;8.00;99.90;;;;;;5072042;28;20181;-72
2021/12/20 10:58:53;;;;;;;16.13;4.37;;;8.20;99.90;;;;;;5072534;28;20184;-72
2021/12/20 11:04:13;;;;;;;0.93;0.93;;;8.20;99.90;;;;;;5069671;28;20234;-71
2021/12/20 11:06:59;;;;;;;4.00;1.90;;;8.50;99.90;;;;;;5083086;28;20267;-72
2021/12/20 11:09:29;;;;;;;1.60;1.50;;;8.80;99.90;;;;;;5074119;28;20543;-72
2021/12/20 11:12:01;;;;;;;0.80;0.80;;;9.40;99.90;;;;;;5071647;28;20192;-72
2021/12/20 11:14:30;;;;;;;1.60;0.87;;;9.80;99.90;;;;;;5071597;28;20204;-71
2021/12/20 11:16:58;;;;;;;15.20;2.00;;;9.70;99.90;;;;;;5082738;28;20184;-69
2021/12/20 11:19:23;;;;;;;2.57;1.37;;;9.80;99.90;;;;;;5091939;28;20197;-72
2021/12/20 11:21:49;;;;;;;1.70;1.50;;;10.30;99.90;;;;;;5091992;28;20205;-72
2021/12/20 11:24:18;;;;;;;2.43;1.43;;;10.40;99.90;;;;;;5092531;28;20198;-72
2021/12/20 11:26:44;;;;;;;0.93;0.93;;;11.20;99.90;;;;;;5091714;28;20183;-72
2021/12/20 11:29:10;;;;;;;1.90;1.80;;;12.50;99.90;;;;;;5091897;28;20199;-72
2021/12/20 11:31:37;;;;;;;0.60;0.60;;;12.70;99.90;;;;;;5092293;28;20282;-73
2021/12/20 11:34:03;;;;;;;0.30;0.30;;;12.30;99.90;;;;;;5092509;28;20669;-73
2021/12/20 11:36:30;;;;;;;0.40;0.40;;;11.40;99.90;;;;;;5091381;28;20297;-72
2021/12/20 11:38:58;;;;;;;1.10;0.63;;;10.90;99.90;;;;;;5087240;28;20168;-73
2021/12/20 11:41:28;;;;;;;0.40;0.40;;;10.10;99.90;;;;;;5071617;28;20227;-72
2021/12/20 11:43:55;;;;;;;0.37;0.37;;;9.50;99.90;;;;;;5072093;28;20210;-72
2021/12/20 11:46:23;;;;;;;0.70;0.67;;;9.00;99.90;;;;;;5071847;28;20176;-73
2021/12/20 11:48:51;;;;;;;0.60;0.60;;;8.40;99.90;;;;;;5053943;28;20180;-71
2021/12/20 11:51:18;;;;;;;1.27;1.20;;;8.30;99.90;;;;;;5072241;28;20200;-72
2021/12/20 11:53:44;;;;;;;0.10;0.10;;;7.90;99.90;;;;;;5071192;28;20555;-71
2021/12/20 11:56:10;;;;;;;0.40;0.40;;;7.60;99.90;;;;;;5070688;28;20188;-72
2021/12/20 11:58:44;;;;;;;0.23;0.23;;;7.50;99.90;;;;;;5071195;28;20254;-71
2021/12/20 12:01:19;;;;;;;3.20;2.03;;;7.40;99.90;;;;;;5053017;28;20216;-72
2021/12/20 12:03:57;;;;;;;0.10;0.10;;;7.30;99.90;;;;;;5070785;28;20180;-71
2021/12/20 12:06:29;;;;;;;2.37;2.13;;;7.40;99.90;;;;;;5071490;28;20259;-72
2021/12/20 12:09:00;;;;;;;0.60;0.60;;;7.50;99.90;;;;;;5071426;28;20632;-72
2021/12/20 12:11:30;;;;;;;7.63;0.63;;;7.60;99.90;;;;;;5071118;28;20568;-72
2021/12/20 12:14:01;;;;;;;0.97;0.93;;;7.30;99.90;;;;;;5071918;28;20184;-72
2021/12/20 12:16:53;;;;;;;0.93;0.93;;;7.20;99.90;;;;;;5052760;28;20184;-71
2021/12/20 12:19:40;;;;;;;0.50;0.50;;;7.10;99.90;;;;;;5070847;28;20263;-72
2021/12/20 12:22:40;;;;;;;0.33;0.33;;;7.70;99.90;;;;;;5053032;28;20199;-71
2021/12/20 12:25:32;;;;;;;0.20;0.20;;;9.80;99.90;;;;;;5070799;28;20551;-71
2021/12/20 12:27:58;;;;;;;0.10;0.10;;;9.30;99.90;;;;;;5070219;28;20203;-72
2021/12/20 12:30:27;;;;;;;0.10;0.10;;;8.40;99.90;;;;;;5070779;28;20192;-71
2021/12/20 12:32:54;;;;;;;2.37;2.17;;;7.90;99.90;;;;;;5070624;28;20687;-71
2021/12/20 12:35:49;;;;;;;1.40;1.10;;;8.40;99.90;;;;;;5070654;28;20267;-72
2021/12/20 12:38:16;;;;;;;3.23;1.80;;;9.20;99.90;;;;;;5070901;28;20263;-72
2021/12/20 12:40:51;;;;;;;0.10;0.10;;;9.20;99.90;;;;;;5070573;28;20207;-72
2021/12/20 12:43:21;;;;;;;1.13;1.13;;;9.00;99.90;;;;;;5052735;28;20253;-72
2021/12/20 12:45:51;;;;;;;1.50;1.40;;;9.20;99.90;;;;;;5052286;28;20265;-70
2021/12/20 12:48:35;;;;;;;3.97;0.83;;;10.20;99.90;;;;;;5070710;28;20690;-72
2021/12/20 12:51:26;;;;;;;0.10;0.10;;;11.20;99.90;;;;;;5070662;28;20184;-71
2021/12/20 12:53:54;;;;;;;0.73;0.50;;;12.30;99.90;;;;;;5039995;28;20235;-70
2021/12/20 12:56:30;;;;;;;0.20;0.20;;;13.10;99.90;;;;;;5070359;28;20544;-72
2021/12/20 12:59:20;;;;;;;9.20;1.30;;;13.30;99.90;;;;;;5070487;28;20185;-72
2021/12/20 13:01:57;;;;;;;0.40;0.40;;;15.60;99.90;;;;;;5070544;28;20820;-71
2021/12/20 13:04:48;;;;;;;1.60;0.80;;;15.70;99.90;;;;;;5070415;28;20215;-71
2021/12/20 13:07:22;;;;;;;0.63;0.63;;;16.50;97.80;;;;;;5070120;28;20176;-71
2021/12/20 13:09:49;;;;;;;0.43;0.43;;;17.10;96.60;;;;;;5052493;28;20230;-71
2021/12/20 13:17:39;;;;;;;0.10;0.10;;;17.50;67.60;;;;;;5073548;28;20529;-71
2021/12/20 13:23:08;;;;;;;1.33;0.67;;;18.50;62.00;;;;;;5074085;28;20209;-71
2021/12/20 13:25:50;;;;;;;4.50;1.07;;;17.20;63.20;;;;;;5073989;28;20573;-70
2021/12/20 13:28:21;;;;;;;4.03;0.50;;;15.80;67.00;;;;;;5073969;28;20173;-71